sensor_id;sensor_type;location;lat;lon;timestamp;pressure;altitude;pressure_sealevel;temperature;humidity
31357;BME280;60001;48.404;11.738;2022-08-02T00:00:36;96493.97;;;20.80;66.67
31357;BME280;60001;48.404;11.738;2022-08-02T00:02:08;96496.47;;;20.76;65.97
31357;BME280;60001;48.404;11.738;2022-08-02T00:03:40;96499.00;;;20.73;66.19
31357;BME280;60001;48.404;11.738;2022-08-02T00:05:12;96501.97;;;20.71;66.60
31357;BME280;60001;48.404;11.738;2022-08-02T00:06:43;96506.25;;;20.72;66.93
31357;BME280;60001;48.404;11.738;2022-08-02T00:08:15;96502.28;;;20.70;66.82
31357;BME280;60001;48.404;11.738;2022-08-02T00:09:47;96503.41;;;20.69;67.27
31357;BME280;60001;48.404;11.738;2022-08-02T00:11:21;96505.09;;;20.65;67.31
31357;BME280;60001;48.404;11.738;2022-08-02T00:12:53;96505.44;;;20.63;67.20
31357;BME280;60001;48.404;11.738;2022-08-02T00:14:24;96503.97;;;20.57;67.52
31357;BME280;60001;48.404;11.738;2022-08-02T00:15:56;96499.56;;;20.52;67.69
31357;BME280;60001;48.404;11.738;2022-08-02T00:17:27;96493.22;;;20.48;67.76
31357;BME280;60001;48.404;11.738;2022-08-02T00:18:59;96504.59;;;20.45;67.44
31357;BME280;60001;48.404;11.738;2022-08-02T00:20:31;96501.81;;;20.37;67.41
31357;BME280;60001;48.404;11.738;2022-08-02T00:22:03;96511.75;;;20.36;67.75
31357;BME280;60001;48.404;11.738;2022-08-02T00:23:34;96510.50;;;20.34;68.20
31357;BME280;60001;48.404;11.738;2022-08-02T00:25:06;96510.03;;;20.32;68.55
31357;BME280;60001;48.404;11.738;2022-08-02T00:26:39;96511.91;;;20.31;68.49
31357;BME280;60001;48.404;11.738;2022-08-02T00:28:11;96518.34;;;20.30;69.10
31357;BME280;60001;48.404;11.738;2022-08-02T00:29:43;96514.72;;;20.26;68.34
31357;BME280;60001;48.404;11.738;2022-08-02T00:31:14;96520.22;;;20.21;68.21
31357;BME280;60001;48.404;11.738;2022-08-02T00:32:45;96521.63;;;20.18;68.46
31357;BME280;60001;48.404;11.738;2022-08-02T00:34:17;96526.47;;;20.16;69.01
31357;BME280;60001;48.404;11.738;2022-08-02T00:35:49;96516.69;;;20.12;68.75
31357;BME280;60001;48.404;11.738;2022-08-02T00:37:20;96528.53;;;20.11;69.15
31357;BME280;60001;48.404;11.738;2022-08-02T00:38:52;96532.31;;;20.10;69.04
31357;BME280;60001;48.404;11.738;2022-08-02T00:40:23;96536.84;;;20.09;69.62
31357;BME280;60001;48.404;11.738;2022-08-02T00:41:56;96534.47;;;20.08;69.89
31357;BME280;60001;48.404;11.738;2022-08-02T00:43:28;96540.94;;;20.07;69.88
31357;BME280;60001;48.404;11.738;2022-08-02T00:45:00;96540.94;;;20.07;69.88
31357;BME280;60001;48.404;11.738;2022-08-02T00:46:31;96535.09;;;20.05;69.85
31357;BME280;60001;48.404;11.738;2022-08-02T00:48:05;96539.97;;;20.03;70.88
31357;BME280;60001;48.404;11.738;2022-08-02T00:49:37;96536.31;;;19.98;70.65
31357;BME280;60001;48.404;11.738;2022-08-02T00:51:09;96535.53;;;19.98;71.03
31357;BME280;60001;48.404;11.738;2022-08-02T00:52:41;96532.19;;;19.92;70.80
31357;BME280;60001;48.404;11.738;2022-08-02T00:54:13;96539.44;;;19.92;71.30
31357;BME280;60001;48.404;11.738;2022-08-02T00:55:44;96528.53;;;19.88;71.63
31357;BME280;60001;48.404;11.738;2022-08-02T00:57:18;96532.31;;;19.87;71.45
31357;BME280;60001;48.404;11.738;2022-08-02T00:58:50;96533.41;;;19.86;71.69
31357;BME280;60001;48.404;11.738;2022-08-02T01:00:22;96526.78;;;19.84;71.36
31357;BME280;60001;48.404;11.738;2022-08-02T01:01:54;96520.31;;;19.85;71.36
31357;BME280;60001;48.404;11.738;2022-08-02T01:03:26;96523.31;;;19.83;71.83
31357;BME280;60001;48.404;11.738;2022-08-02T01:04:58;96523.78;;;19.85;72.17
31357;BME280;60001;48.404;11.738;2022-08-02T01:06:34;96527.72;;;19.88;71.50
31357;BME280;60001;48.404;11.738;2022-08-02T01:08:05;96524.25;;;19.87;72.00
31357;BME280;60001;48.404;11.738;2022-08-02T01:09:37;96528.03;;;19.86;71.83
31357;BME280;60001;48.404;11.738;2022-08-02T01:11:08;96532.59;;;19.86;71.47
31357;BME280;60001;48.404;11.738;2022-08-02T01:12:42;96528.66;;;19.83;72.08
31357;BME280;60001;48.404;11.738;2022-08-02T01:14:14;96525.19;;;19.83;71.97
31357;BME280;60001;48.404;11.738;2022-08-02T01:15:54;96525.47;;;19.81;71.83
31357;BME280;60001;48.404;11.738;2022-08-02T01:17:35;96524.53;;;19.77;72.36
31357;BME280;60001;48.404;11.738;2022-08-02T01:19:26;96520.06;;;19.73;72.68
31357;BME280;60001;48.404;11.738;2022-08-02T01:21:22;96518.78;;;19.70;72.44
31357;BME280;60001;48.404;11.738;2022-08-02T01:23:13;96514.81;;;19.67;72.89
31357;BME280;60001;48.404;11.738;2022-08-02T01:25:08;96527.75;;;19.65;72.52
31357;BME280;60001;48.404;11.738;2022-08-02T01:26:49;96512.41;;;19.57;72.62
31357;BME280;60001;48.404;11.738;2022-08-02T01:28:34;96525.16;;;19.60;72.71
31357;BME280;60001;48.404;11.738;2022-08-02T01:30:07;96524.97;;;19.57;72.87
31357;BME280;60001;48.404;11.738;2022-08-02T01:31:45;96519.41;;;19.53;73.33
31357;BME280;60001;48.404;11.738;2022-08-02T01:33:20;96515.47;;;19.51;73.65
31357;BME280;60001;48.404;11.738;2022-08-02T01:34:59;96519.84;;;19.47;74.03
31357;BME280;60001;48.404;11.738;2022-08-02T01:36:37;96511.00;;;19.46;73.77
31357;BME280;60001;48.404;11.738;2022-08-02T01:38:17;96521.53;;;19.42;74.30
31357;BME280;60001;48.404;11.738;2022-08-02T01:39:56;96524.81;;;19.39;73.91
31357;BME280;60001;48.404;11.738;2022-08-02T01:41:31;96525.91;;;19.38;74.36
31357;BME280;60001;48.404;11.738;2022-08-02T01:43:06;96520.38;;;19.35;74.81
31357;BME280;60001;48.404;11.738;2022-08-02T01:44:42;96525.44;;;19.36;75.04
31357;BME280;60001;48.404;11.738;2022-08-02T01:46:17;96520.06;;;19.36;75.50
31357;BME280;60001;48.404;11.738;2022-08-02T01:47:51;96526.22;;;19.37;75.17
31357;BME280;60001;48.404;11.738;2022-08-02T01:49:28;96511.72;;;19.38;75.27
31357;BME280;60001;48.404;11.738;2022-08-02T01:51:02;96514.41;;;19.38;75.26
31357;BME280;60001;48.404;11.738;2022-08-02T01:52:42;96514.41;;;19.38;75.48
31357;BME280;60001;48.404;11.738;2022-08-02T01:54:18;96508.56;;;19.36;74.80
31357;BME280;60001;48.404;11.738;2022-08-02T01:55:55;96510.47;;;19.35;75.54
31357;BME280;60001;48.404;11.738;2022-08-02T01:57:33;96501.75;;;19.30;75.47
31357;BME280;60001;48.404;11.738;2022-08-02T01:59:12;96502.75;;;19.34;74.67
31357;BME280;60001;48.404;11.738;2022-08-02T02:00:46;96508.09;;;19.34;75.19
31357;BME280;60001;48.404;11.738;2022-08-02T02:02:21;96481.84;;;19.22;75.08
31357;BME280;60001;48.404;11.738;2022-08-02T02:03:54;96502.53;;;19.30;74.57
31357;BME280;60001;48.404;11.738;2022-08-02T02:05:28;96497.50;;;19.29;75.49
31357;BME280;60001;48.404;11.738;2022-08-02T02:07:02;96495.91;;;19.28;75.05
31357;BME280;60001;48.404;11.738;2022-08-02T02:08:38;96496.69;;;19.28;75.31
31357;BME280;60001;48.404;11.738;2022-08-02T02:10:14;96498.28;;;19.29;75.16
31357;BME280;60001;48.404;11.738;2022-08-02T02:11:47;96505.84;;;19.27;75.44
31357;BME280;60001;48.404;11.738;2022-08-02T02:13:20;96504.25;;;19.26;75.03
31357;BME280;60001;48.404;11.738;2022-08-02T02:14:55;96503.44;;;19.26;75.35
31357;BME280;60001;48.404;11.738;2022-08-02T02:16:29;96502.66;;;19.25;75.39
31357;BME280;60001;48.404;11.738;2022-08-02T02:18:03;96500.28;;;19.24;75.53
31357;BME280;60001;48.404;11.738;2022-08-02T02:19:38;96505.63;;;19.24;75.63
31357;BME280;60001;48.404;11.738;2022-08-02T02:21:11;96502.16;;;19.23;76.17
31357;BME280;60001;48.404;11.738;2022-08-02T02:22:43;96504.84;;;19.23;75.93
31357;BME280;60001;48.404;11.738;2022-08-02T02:24:15;96507.81;;;19.22;75.80
31357;BME280;60001;48.404;11.738;2022-08-02T02:25:48;96498.50;;;19.19;75.40
31357;BME280;60001;48.404;11.738;2022-08-02T02:27:21;96506.81;;;19.17;75.33
31357;BME280;60001;48.404;11.738;2022-08-02T02:28:57;96506.34;;;19.15;76.32
31357;BME280;60001;48.404;11.738;2022-08-02T02:30:32;96509.34;;;19.14;76.33
31357;BME280;60001;48.404;11.738;2022-08-02T02:32:07;96507.25;;;19.11;75.73
31357;BME280;60001;48.404;11.738;2022-08-02T02:33:47;96502.50;;;19.08;76.15
31357;BME280;60001;48.404;11.738;2022-08-02T02:35:21;96502.50;;;19.08;76.00
31357;BME280;60001;48.404;11.738;2022-08-02T02:36:57;96504.97;;;19.04;75.95
31357;BME280;60001;48.404;11.738;2022-08-02T02:38:31;96508.75;;;19.03;76.68
31357;BME280;60001;48.404;11.738;2022-08-02T02:40:06;96510.63;;;19.03;76.48
31357;BME280;60001;48.404;11.738;2022-08-02T02:41:39;96506.38;;;19.02;77.05
31357;BME280;60001;48.404;11.738;2022-08-02T02:43:14;96506.38;;;19.02;76.32
31357;BME280;60001;48.404;11.738;2022-08-02T02:44:48;96512.81;;;19.01;77.18
31357;BME280;60001;48.404;11.738;2022-08-02T02:46:21;96509.34;;;19.00;77.32
31357;BME280;60001;48.404;11.738;2022-08-02T02:47:55;96505.59;;;19.01;77.12
31357;BME280;60001;48.404;11.738;2022-08-02T02:49:31;96517.38;;;19.00;76.60
31357;BME280;60001;48.404;11.738;2022-08-02T02:51:08;96511.25;;;19.00;77.03
31357;BME280;60001;48.404;11.738;2022-08-02T02:52:42;96513.13;;;18.99;76.66
31357;BME280;60001;48.404;11.738;2022-08-02T02:54:16;96519.28;;;19.00;76.65
31357;BME280;60001;48.404;11.738;2022-08-02T02:55:48;96517.69;;;18.99;76.59
31357;BME280;60001;48.404;11.738;2022-08-02T02:57:21;96519.84;;;18.97;77.25
31357;BME280;60001;48.404;11.738;2022-08-02T02:58:53;96523.63;;;18.96;77.37
31357;BME280;60001;48.404;11.738;2022-08-02T03:00:25;96517.78;;;18.94;76.92
31357;BME280;60001;48.404;11.738;2022-08-02T03:02:13;96519.47;;;18.89;77.15
31357;BME280;60001;48.404;11.738;2022-08-02T03:03:48;96526.91;;;18.93;77.06
31357;BME280;60001;48.404;11.738;2022-08-02T03:05:19;96518.88;;;18.93;77.48
31357;BME280;60001;48.404;11.738;2022-08-02T03:06:51;96526.59;;;18.94;77.61
31357;BME280;60001;48.404;11.738;2022-08-02T03:08:23;96530.69;;;18.92;77.00
31357;BME280;60001;48.404;11.738;2022-08-02T03:09:55;96527.69;;;18.93;77.75
31357;BME280;60001;48.404;11.738;2022-08-02T03:11:28;96525.81;;;18.94;77.82
31357;BME280;60001;48.404;11.738;2022-08-02T03:13:00;96524.72;;;18.95;77.86
31357;BME280;60001;48.404;11.738;2022-08-02T03:14:32;96529.28;;;18.94;77.15
31357;BME280;60001;48.404;11.738;2022-08-02T03:16:07;96523.63;;;18.96;77.67
31357;BME280;60001;48.404;11.738;2022-08-02T03:17:40;96532.75;;;18.95;77.64
31357;BME280;60001;48.404;11.738;2022-08-02T03:19:14;96536.69;;;18.97;77.49
31357;BME280;60001;48.404;11.738;2022-08-02T03:20:46;96534.81;;;18.98;77.12
31357;BME280;60001;48.404;11.738;2022-08-02T03:22:17;96536.44;;;18.99;77.21
31357;BME280;60001;48.404;11.738;2022-08-02T03:23:50;96538.78;;;19.00;77.38
31357;BME280;60001;48.404;11.738;2022-08-02T03:25:21;96538.50;;;19.02;77.44
31357;BME280;60001;48.404;11.738;2022-08-02T03:26:53;96530.75;;;19.00;77.08
31357;BME280;60001;48.404;11.738;2022-08-02T03:28:25;96530.47;;;19.02;77.03
31357;BME280;60001;48.404;11.738;2022-08-02T03:29:57;96528.41;;;18.99;77.25
31357;BME280;60001;48.404;11.738;2022-08-02T03:31:29;96535.31;;;19.00;77.90
31357;BME280;60001;48.404;11.738;2022-08-02T03:33:01;96529.66;;;19.01;77.39
31357;BME280;60001;48.404;11.738;2022-08-02T03:34:34;96537.69;;;19.01;77.31
31357;BME280;60001;48.404;11.738;2022-08-02T03:36:10;96539.88;;;18.99;77.60
31357;BME280;60001;48.404;11.738;2022-08-02T03:37:44;96540.06;;;19.03;77.75
31357;BME280;60001;48.404;11.738;2022-08-02T03:39:18;96543.84;;;19.02;77.71
31357;BME280;60001;48.404;11.738;2022-08-02T03:40:52;96542.44;;;19.04;77.46
31357;BME280;60001;48.404;11.738;2022-08-02T03:42:25;96536.81;;;19.06;77.81
31357;BME280;60001;48.404;11.738;2022-08-02T03:43:59;96533.81;;;19.07;77.36
31357;BME280;60001;48.404;11.738;2022-08-02T03:45:33;96539.19;;;19.07;77.54
31357;BME280;60001;48.404;11.738;2022-08-02T03:47:06;96541.56;;;19.09;77.02
31357;BME280;60001;48.404;11.738;2022-08-02T03:48:38;96535.09;;;19.10;77.48
31357;BME280;60001;48.404;11.738;2022-08-02T03:50:12;96535.09;;;19.10;77.63
31357;BME280;60001;48.404;11.738;2022-08-02T03:51:43;96536.69;;;19.11;76.94
31357;BME280;60001;48.404;11.738;2022-08-02T03:53:16;96535.59;;;19.12;77.53
31357;BME280;60001;48.404;11.738;2022-08-02T03:54:48;96531.31;;;19.11;77.56
31357;BME280;60001;48.404;11.738;2022-08-02T03:56:20;96535.59;;;19.12;77.46
31357;BME280;60001;48.404;11.738;2022-08-02T03:57:52;96539.34;;;19.11;77.67
31357;BME280;60001;48.404;11.738;2022-08-02T03:59:24;96540.94;;;19.12;77.19
31357;BME280;60001;48.404;11.738;2022-08-02T04:00:57;96544.72;;;19.11;77.94
31357;BME280;60001;48.404;11.738;2022-08-02T04:02:29;96533.53;;;19.09;77.58
31357;BME280;60001;48.404;11.738;2022-08-02T04:03:59;96539.09;;;19.12;77.70
31357;BME280;60001;48.404;11.738;2022-08-02T04:05:32;96536.41;;;19.12;77.48
31357;BME280;60001;48.404;11.738;2022-08-02T04:07:05;96545.50;;;19.11;77.96
31357;BME280;60001;48.404;11.738;2022-08-02T04:08:37;96544.72;;;19.11;77.48
31357;BME280;60001;48.404;11.738;2022-08-02T04:10:09;96544.44;;;19.12;77.79
31357;BME280;60001;48.404;11.738;2022-08-02T04:11:39;96548.38;;;19.15;77.51
31357;BME280;60001;48.404;11.738;2022-08-02T04:13:11;96546.00;;;19.13;77.82
31357;BME280;60001;48.404;11.738;2022-08-02T04:14:43;96549.97;;;19.16;77.41
31357;BME280;60001;48.404;11.738;2022-08-02T04:16:20;96556.91;;;19.17;77.65
31357;BME280;60001;48.404;11.738;2022-08-02T04:17:54;96546.97;;;19.17;77.17
31357;BME280;60001;48.404;11.738;2022-08-02T04:19:31;96547.78;;;19.18;77.14
31357;BME280;60001;48.404;11.738;2022-08-02T04:21:13;96549.66;;;19.17;77.97
31357;BME280;60001;48.404;11.738;2022-08-02T04:22:51;96552.03;;;19.19;77.24
31357;BME280;60001;48.404;11.738;2022-08-02T04:24:28;96558.47;;;19.18;77.57
31357;BME280;60001;48.404;11.738;2022-08-02T04:26:03;96553.91;;;19.18;77.55
31357;BME280;60001;48.404;11.738;2022-08-02T04:27:39;96561.16;;;19.18;77.37
31357;BME280;60001;48.404;11.738;2022-08-02T04:29:12;96565.94;;;19.21;77.99
31357;BME280;60001;48.404;11.738;2022-08-02T04:30:46;96561.06;;;19.23;77.86
31357;BME280;60001;48.404;11.738;2022-08-02T04:32:21;96559.47;;;19.22;77.55
31357;BME280;60001;48.404;11.738;2022-08-02T04:33:54;96568.28;;;19.23;77.52
31357;BME280;60001;48.404;11.738;2022-08-02T04:35:26;96561.66;;;19.20;77.40
31357;BME280;60001;48.404;11.738;2022-08-02T04:36:58;96568.09;;;19.19;77.72
31357;BME280;60001;48.404;11.738;2022-08-02T04:38:30;96567.31;;;19.18;78.31
31357;BME280;60001;48.404;11.738;2022-08-02T04:40:05;96574.25;;;19.20;77.89
31357;BME280;60001;48.404;11.738;2022-08-02T04:41:39;96580.41;;;19.20;78.03
31357;BME280;60001;48.404;11.738;2022-08-02T04:43:12;96579.31;;;19.21;77.45
31357;BME280;60001;48.404;11.738;2022-08-02T04:44:42;96586.25;;;19.22;77.65
31357;BME280;60001;48.404;11.738;2022-08-02T04:46:14;96592.38;;;19.23;77.91
31357;BME280;60001;48.404;11.738;2022-08-02T04:47:46;96595.84;;;19.23;77.69
31357;BME280;60001;48.404;11.738;2022-08-02T04:49:17;96588.63;;;19.24;77.30
31357;BME280;60001;48.404;11.738;2022-08-02T04:50:49;96595.56;;;19.25;77.75
31357;BME280;60001;48.404;11.738;2022-08-02T04:52:22;96591.78;;;19.26;77.56
31357;BME280;60001;48.404;11.738;2022-08-02T04:53:54;96589.09;;;19.26;77.75
31357;BME280;60001;48.404;11.738;2022-08-02T04:55:26;96591.50;;;19.27;77.19
31357;BME280;60001;48.404;11.738;2022-08-02T04:56:59;96601.13;;;19.28;77.72
31357;BME280;60001;48.404;11.738;2022-08-02T04:58:31;96596.84;;;19.27;77.89
31357;BME280;60001;48.404;11.738;2022-08-02T05:00:02;96598.63;;;19.32;77.33
31357;BME280;60001;48.404;11.738;2022-08-02T05:01:34;96596.16;;;19.35;77.43
31357;BME280;60001;48.404;11.738;2022-08-02T05:03:06;96597.41;;;19.38;77.55
31357;BME280;60001;48.404;11.738;2022-08-02T05:04:38;96600.31;;;19.41;76.79
31357;BME280;60001;48.404;11.738;2022-08-02T05:06:10;96597.63;;;19.41;76.19
31357;BME280;60001;48.404;11.738;2022-08-02T05:07:43;96593.06;;;19.42;76.00
31357;BME280;60001;48.404;11.738;2022-08-02T05:09:14;96588.50;;;19.42;76.34
31357;BME280;60001;48.404;11.738;2022-08-02T05:10:46;96583.94;;;19.43;76.27
31357;BME280;60001;48.404;11.738;2022-08-02T05:12:17;96578.56;;;19.43;76.96
31357;BME280;60001;48.404;11.738;2022-08-02T05:13:51;96578.56;;;19.43;76.29
31357;BME280;60001;48.404;11.738;2022-08-02T05:15:23;96583.63;;;19.44;77.42
31357;BME280;60001;48.404;11.738;2022-08-02T05:16:55;96577.16;;;19.45;76.62
31357;BME280;60001;48.404;11.738;2022-08-02T05:18:27;96579.25;;;19.49;77.23
31357;BME280;60001;48.404;11.738;2022-08-02T05:19:58;96578.16;;;19.50;77.02
31357;BME280;60001;48.404;11.738;2022-08-02T05:21:30;96582.63;;;19.54;76.89
31357;BME280;60001;48.404;11.738;2022-08-02T05:23:03;96583.09;;;19.56;76.75
31357;BME280;60001;48.404;11.738;2022-08-02T05:24:35;96585.72;;;19.61;76.63
31357;BME280;60001;48.404;11.738;2022-08-02T05:26:06;96581.41;;;19.60;75.90
31357;BME280;60001;48.404;11.738;2022-08-02T05:27:38;96587.66;;;19.69;76.14
31357;BME280;60001;48.404;11.738;2022-08-02T05:29:09;96590.50;;;19.73;75.69
31357;BME280;60001;48.404;11.738;2022-08-02T05:30:41;96593.69;;;19.75;75.30
31357;BME280;60001;48.404;11.738;2022-08-02T05:32:13;96590.41;;;19.78;75.95
31357;BME280;60001;48.404;11.738;2022-08-02T05:33:45;96596.25;;;19.80;75.66
31357;BME280;60001;48.404;11.738;2022-08-02T05:35:18;96594.88;;;19.83;76.27
31357;BME280;60001;48.404;11.738;2022-08-02T05:36:51;96597.22;;;19.84;76.04
31357;BME280;60001;48.404;11.738;2022-08-02T05:38:24;96598.03;;;19.85;75.86
31357;BME280;60001;48.404;11.738;2022-08-02T05:39:58;96589.38;;;19.88;75.45
31357;BME280;60001;48.404;11.738;2022-08-02T05:41:30;96594.94;;;19.91;75.64
31357;BME280;60001;48.404;11.738;2022-08-02T05:43:01;96590.53;;;19.95;75.51
31357;BME280;60001;48.404;11.738;2022-08-02T05:44:33;96594.50;;;19.98;75.26
31357;BME280;60001;48.404;11.738;2022-08-02T05:46:07;96595.78;;;20.01;75.48
31357;BME280;60001;48.404;11.738;2022-08-02T05:47:39;96594.66;;;20.02;75.04
31357;BME280;60001;48.404;11.738;2022-08-02T05:49:11;96593.56;;;20.03;74.94
31357;BME280;60001;48.404;11.738;2022-08-02T05:50:48;96593.88;;;20.01;74.59
31357;BME280;60001;48.404;11.738;2022-08-02T05:52:25;96596.56;;;20.01;74.84
31357;BME280;60001;48.404;11.738;2022-08-02T05:54:09;96596.88;;;19.99;74.75
31357;BME280;60001;48.404;11.738;2022-08-02T05:55:47;96599.06;;;19.97;74.56
31357;BME280;60001;48.404;11.738;2022-08-02T05:57:31;96598.75;;;19.99;75.10
31357;BME280;60001;48.404;11.738;2022-08-02T05:59:15;96594.06;;;20.05;74.98
31357;BME280;60001;48.404;11.738;2022-08-02T06:00:49;96594.44;;;20.12;75.30
31357;BME280;60001;48.404;11.738;2022-08-02T06:02:28;96591.34;;;20.18;74.56
31357;BME280;60001;48.404;11.738;2022-08-02T06:04:05;96592.78;;;20.24;74.08
31357;BME280;60001;48.404;11.738;2022-08-02T06:05:39;96585.38;;;20.30;73.82
31357;BME280;60001;48.404;11.738;2022-08-02T06:07:13;96583.88;;;20.38;73.85
31357;BME280;60001;48.404;11.738;2022-08-02T06:08:49;96588.81;;;20.44;73.88
31357;BME280;60001;48.404;11.738;2022-08-02T06:10:26;96588.88;;;20.53;73.80
31357;BME280;60001;48.404;11.738;2022-08-02T06:12:01;96583.66;;;20.57;73.29
31357;BME280;60001;48.404;11.738;2022-08-02T06:13:34;96585.59;;;20.65;72.67
31357;BME280;60001;48.404;11.738;2022-08-02T06:15:07;96588.16;;;20.70;72.40
31357;BME280;60001;48.404;11.738;2022-08-02T06:16:40;96594.84;;;20.81;72.23
31357;BME280;60001;48.404;11.738;2022-08-02T06:18:15;96594.88;;;20.98;71.31
31357;BME280;60001;48.404;11.738;2022-08-02T06:19:47;96587.81;;;21.11;71.04
31357;BME280;60001;48.404;11.738;2022-08-02T06:21:20;96588.81;;;21.24;71.41
31357;BME280;60001;48.404;11.738;2022-08-02T06:22:57;96596.78;;;21.38;70.57
31357;BME280;60001;48.404;11.738;2022-08-02T06:24:31;96592.06;;;21.52;70.65
31357;BME280;60001;48.404;11.738;2022-08-02T06:26:11;96594.41;;;21.62;70.22
31357;BME280;60001;48.404;11.738;2022-08-02T06:27:46;96596.34;;;21.79;70.19
31357;BME280;60001;48.404;11.738;2022-08-02T06:29:20;96589.84;;;21.88;69.27
31357;BME280;60001;48.404;11.738;2022-08-02T06:30:52;96592.03;;;22.04;68.91
31357;BME280;60001;48.404;11.738;2022-08-02T06:32:26;96582.25;;;22.16;68.69
31357;BME280;60001;48.404;11.738;2022-08-02T06:33:57;96589.19;;;22.35;68.81
31357;BME280;60001;48.404;11.738;2022-08-02T06:35:34;96588.19;;;22.57;67.71
31357;BME280;60001;48.404;11.738;2022-08-02T06:37:19;96587.75;;;22.84;66.44
31357;BME280;60001;48.404;11.738;2022-08-02T06:38:56;96586.41;;;23.08;65.60
31357;BME280;60001;48.404;11.738;2022-08-02T06:40:37;96583.22;;;23.44;65.16
31357;BME280;60001;48.404;11.738;2022-08-02T06:42:20;96583.44;;;23.81;62.89
31357;BME280;60001;48.404;11.738;2022-08-02T06:44:00;96587.50;;;24.20;62.08
31357;BME280;60001;48.404;11.738;2022-08-02T06:45:33;96587.19;;;24.54;61.33
31357;BME280;60001;48.404;11.738;2022-08-02T06:47:05;96591.94;;;24.82;59.17
31357;BME280;60001;48.404;11.738;2022-08-02T06:48:37;96590.97;;;24.99;58.33
31357;BME280;60001;48.404;11.738;2022-08-02T06:50:10;96583.91;;;25.06;56.35
31357;BME280;60001;48.404;11.738;2022-08-02T06:51:41;96588.31;;;25.11;57.21
31357;BME280;60001;48.404;11.738;2022-08-02T06:53:13;96589.84;;;25.24;56.40
31357;BME280;60001;48.404;11.738;2022-08-02T06:54:45;96593.91;;;25.30;56.07
31357;BME280;60001;48.404;11.738;2022-08-02T06:56:17;96595.38;;;25.40;55.62
31357;BME280;60001;48.404;11.738;2022-08-02T06:57:51;96592.09;;;25.34;54.38
31357;BME280;60001;48.404;11.738;2022-08-02T06:59:23;96592.91;;;25.35;54.26
31357;BME280;60001;48.404;11.738;2022-08-02T07:00:54;96598.75;;;25.37;55.17
31357;BME280;60001;48.404;11.738;2022-08-02T07:02:27;96596.47;;;25.51;55.32
31357;BME280;60001;48.404;11.738;2022-08-02T07:03:59;96593.31;;;25.74;54.50
31357;BME280;60001;48.404;11.738;2022-08-02T07:05:31;96601.00;;;26.00;53.41
31357;BME280;60001;48.404;11.738;2022-08-02T07:07:03;96602.91;;;26.27;52.79
31357;BME280;60001;48.404;11.738;2022-08-02T07:08:36;96601.69;;;26.53;51.72
31357;BME280;60001;48.404;11.738;2022-08-02T07:10:08;96589.28;;;26.67;51.72
31357;BME280;60001;48.404;11.738;2022-08-02T07:11:40;96604.69;;;26.95;50.91
31357;BME280;60001;48.404;11.738;2022-08-02T07:13:13;96607.56;;;27.02;49.42
31357;BME280;60001;48.404;11.738;2022-08-02T07:14:45;96602.72;;;27.08;48.93
31357;BME280;60001;48.404;11.738;2022-08-02T07:16:17;96608.19;;;27.11;49.02
31357;BME280;60001;48.404;11.738;2022-08-02T07:17:49;96594.03;;;27.18;48.50
31357;BME280;60001;48.404;11.738;2022-08-02T07:19:21;96606.44;;;27.35;48.40
31357;BME280;60001;48.404;11.738;2022-08-02T07:20:53;96596.28;;;27.47;47.37
31357;BME280;60001;48.404;11.738;2022-08-02T07:22:26;96595.84;;;27.29;47.65
31357;BME280;60001;48.404;11.738;2022-08-02T07:23:58;96595.06;;;27.29;47.97
31357;BME280;60001;48.404;11.738;2022-08-02T07:25:29;96588.94;;;27.32;47.78
31357;BME280;60001;48.404;11.738;2022-08-02T07:27:01;96596.69;;;27.49;47.24
31357;BME280;60001;48.404;11.738;2022-08-02T07:28:35;96586.06;;;27.76;46.45
31357;BME280;60001;48.404;11.738;2022-08-02T07:30:07;96597.72;;;27.96;45.96
31357;BME280;60001;48.404;11.738;2022-08-02T07:31:39;96598.56;;;28.00;45.18
31357;BME280;60001;48.404;11.738;2022-08-02T07:33:11;96587.63;;;27.96;46.07
31357;BME280;60001;48.404;11.738;2022-08-02T07:34:43;96595.75;;;28.16;46.28
31357;BME280;60001;48.404;11.738;2022-08-02T07:36:15;96596.75;;;28.46;45.59
31357;BME280;60001;48.404;11.738;2022-08-02T07:37:47;96599.19;;;28.74;44.84
31357;BME280;60001;48.404;11.738;2022-08-02T07:39:19;96599.44;;;29.11;44.76
31357;BME280;60001;48.404;11.738;2022-08-02T07:40:51;96587.91;;;29.44;43.30
31357;BME280;60001;48.404;11.738;2022-08-02T07:42:23;96596.47;;;29.73;42.79
31357;BME280;60001;48.404;11.738;2022-08-02T07:43:55;96598.78;;;29.71;42.50
31357;BME280;60001;48.404;11.738;2022-08-02T07:45:27;96594.34;;;29.59;42.27
31357;BME280;60001;48.404;11.738;2022-08-02T07:46:59;96590.38;;;29.53;42.32
31357;BME280;60001;48.404;11.738;2022-08-02T07:48:31;96592.75;;;29.32;42.18
31357;BME280;60001;48.404;11.738;2022-08-02T07:50:04;96592.81;;;29.09;42.84
31357;BME280;60001;48.404;11.738;2022-08-02T07:51:36;96592.66;;;28.79;42.77
31357;BME280;60001;48.404;11.738;2022-08-02T07:53:08;96588.56;;;28.65;44.36
31357;BME280;60001;48.404;11.738;2022-08-02T07:54:40;96589.69;;;28.64;44.33
31357;BME280;60001;48.404;11.738;2022-08-02T07:56:11;96590.34;;;28.58;44.11
31357;BME280;60001;48.404;11.738;2022-08-02T07:57:44;96589.63;;;28.38;44.58
31357;BME280;60001;48.404;11.738;2022-08-02T07:59:18;96584.06;;;28.11;44.25
31357;BME280;60001;48.404;11.738;2022-08-02T08:00:49;96594.63;;;28.17;45.32
31357;BME280;60001;48.404;11.738;2022-08-02T08:02:21;96583.56;;;28.45;46.10
31357;BME280;60001;48.404;11.738;2022-08-02T08:03:54;96591.47;;;28.76;45.24
31357;BME280;60001;48.404;11.738;2022-08-02T08:05:26;96587.75;;;29.07;43.49
31357;BME280;60001;48.404;11.738;2022-08-02T08:06:58;96585.06;;;28.88;43.45
31357;BME280;60001;48.404;11.738;2022-08-02T08:08:29;96578.91;;;28.91;43.21
31357;BME280;60001;48.404;11.738;2022-08-02T08:10:02;96592.13;;;29.15;44.32